createdAt,value
2019-03-06T00:01:36.995Z,12.55
2019-03-06T00:04:03.022Z,13.58
2019-03-06T00:06:28.812Z,12.87
2019-03-06T00:08:54.593Z,10.80
2019-03-06T00:11:20.367Z,10.57
2019-03-06T00:13:46.166Z,11.70
2019-03-06T00:16:11.941Z,11.27
2019-03-06T00:18:37.932Z,15.27
2019-03-06T00:21:03.846Z,12.30
2019-03-06T00:23:29.630Z,12.40
2019-03-06T00:25:55.624Z,9.87
2019-03-06T00:28:21.425Z,12.03
2019-03-06T00:30:47.199Z,13.43
2019-03-06T00:33:13.000Z,11.53
2019-03-06T00:35:46.878Z,12.07
2019-03-06T00:38:13.020Z,13.10
2019-03-06T00:40:43.295Z,13.90
2019-03-06T00:43:09.082Z,13.28
2019-03-06T00:45:34.864Z,15.23
2019-03-06T00:48:00.646Z,13.00
2019-03-06T00:50:26.437Z,14.97
2019-03-06T00:52:52.210Z,14.13
2019-03-06T00:55:18.007Z,13.57
2019-03-06T00:57:43.784Z,13.07
2019-03-06T01:00:12.686Z,15.30
2019-03-06T01:02:38.477Z,13.30
2019-03-06T01:05:06.669Z,9.17
2019-03-06T01:07:32.451Z,11.43
2019-03-06T01:09:58.240Z,15.73
2019-03-06T01:12:24.021Z,13.73
2019-03-06T01:14:49.810Z,14.10
2019-03-06T01:17:15.593Z,15.73
2019-03-06T01:19:41.403Z,16.50
2019-03-06T01:22:07.182Z,10.03
2019-03-06T01:24:33.389Z,18.48
2019-03-06T01:26:59.169Z,10.53
2019-03-06T01:29:24.965Z,16.03
2019-03-06T01:31:50.741Z,15.67
2019-03-06T01:34:18.422Z,15.97
2019-03-06T01:36:51.877Z,14.15
2019-03-06T01:39:19.564Z,12.93
2019-03-06T01:41:47.265Z,13.98
2019-03-06T01:44:17.487Z,15.50
2019-03-06T01:46:43.278Z,12.73
2019-03-06T01:49:09.055Z,13.67
2019-03-06T01:51:35.149Z,17.82
2019-03-06T01:54:00.923Z,12.70
2019-03-06T01:56:26.710Z,10.77
2019-03-06T01:58:52.487Z,15.77
2019-03-06T02:01:18.273Z,10.67
2019-03-06T02:03:44.061Z,10.40
2019-03-06T02:06:09.850Z,18.20
2019-03-06T02:08:35.625Z,14.07
2019-03-06T02:11:01.414Z,16.37
2019-03-06T02:13:27.186Z,18.93
2019-03-06T02:15:52.986Z,12.57
2019-03-06T02:18:18.763Z,17.13
2019-03-06T02:20:44.571Z,13.27
2019-03-06T02:23:10.660Z,16.93
2019-03-06T02:25:36.436Z,20.30
2019-03-06T02:28:02.224Z,16.80
2019-03-06T02:30:28.096Z,16.50
2019-03-06T02:32:53.880Z,16.00
2019-03-06T02:35:19.656Z,13.90
2019-03-06T02:37:45.544Z,15.00
2019-03-06T02:40:11.522Z,20.83
2019-03-06T02:42:37.306Z,16.57
2019-03-06T02:45:12.166Z,19.73
2019-03-06T02:47:37.960Z,18.05
2019-03-06T02:50:07.003Z,22.30
2019-03-06T02:52:32.803Z,17.82
2019-03-06T02:54:58.584Z,16.17
2019-03-06T02:57:24.367Z,18.37
2019-03-06T02:59:52.063Z,15.87
2019-03-06T03:02:32.108Z,16.73
2019-03-06T03:04:59.797Z,20.12
2019-03-06T03:07:25.593Z,20.95
2019-03-06T03:09:51.370Z,15.80
2019-03-06T03:12:17.154Z,17.13
2019-03-06T03:14:42.930Z,18.77
2019-03-06T03:17:08.717Z,17.00
2019-03-06T03:19:34.491Z,19.97
2019-03-06T03:22:00.597Z,19.30
2019-03-06T03:24:26.377Z,18.37
2019-03-06T03:26:52.161Z,17.77
2019-03-06T03:29:17.984Z,18.40
2019-03-06T03:31:43.861Z,21.03
2019-03-06T03:34:09.623Z,17.27
2019-03-06T03:36:35.398Z,19.70
2019-03-06T03:39:01.503Z,19.05
2019-03-06T03:41:27.281Z,18.33
2019-03-06T03:43:53.170Z,17.13
2019-03-06T03:46:18.943Z,18.57
2019-03-06T03:48:44.728Z,22.47
2019-03-06T03:51:10.505Z,18.27
2019-03-06T03:53:36.299Z,21.77
2019-03-06T03:56:02.385Z,18.77
2019-03-06T03:58:28.186Z,22.87
2019-03-06T04:00:54.261Z,18.77
2019-03-06T04:03:20.062Z,21.95
2019-03-06T04:05:45.837Z,18.00
2019-03-06T04:08:11.631Z,17.47
2019-03-06T04:10:37.413Z,20.67
2019-03-06T04:13:03.517Z,19.15
2019-03-06T04:15:29.321Z,21.70
2019-03-06T04:17:55.133Z,19.60
2019-03-06T04:20:21.042Z,20.87
2019-03-06T04:22:46.825Z,18.40
2019-03-06T04:25:12.615Z,22.00
2019-03-06T04:27:38.394Z,19.20
2019-03-06T04:30:15.739Z,21.40
2019-03-06T04:32:41.521Z,21.52
2019-03-06T04:35:07.308Z,22.43
2019-03-06T04:37:33.081Z,20.90
2019-03-06T04:39:58.880Z,20.27
2019-03-06T04:42:24.657Z,20.03
2019-03-06T04:44:50.440Z,21.63
2019-03-06T04:47:16.218Z,23.07
2019-03-06T04:49:42.010Z,21.43
2019-03-06T04:52:07.794Z,25.83
2019-03-06T04:54:33.677Z,21.57
2019-03-06T04:56:59.603Z,24.33
2019-03-06T04:59:25.960Z,23.02
2019-03-06T05:01:52.052Z,23.77
2019-03-06T05:04:18.007Z,25.57
2019-03-06T05:06:43.956Z,23.00
2019-03-06T05:09:09.894Z,23.63
2019-03-06T05:11:35.717Z,24.70
2019-03-06T05:14:01.509Z,23.73
2019-03-06T05:16:29.188Z,23.60
2019-03-06T05:18:56.595Z,23.95
2019-03-06T05:21:22.396Z,24.47
2019-03-06T05:23:48.171Z,25.57
2019-03-06T05:26:13.979Z,27.67
2019-03-06T05:28:39.752Z,25.43
2019-03-06T05:31:05.757Z,25.10
2019-03-06T05:33:31.538Z,25.10
2019-03-06T05:36:10.158Z,25.53
2019-03-06T05:39:01.083Z,28.07
2019-03-06T05:41:26.868Z,24.60
2019-03-06T05:43:52.641Z,27.30
2019-03-06T05:46:18.433Z,26.37
2019-03-06T05:48:44.204Z,23.37
2019-03-06T05:51:10.005Z,24.17
2019-03-06T05:53:36.189Z,28.33
2019-03-06T05:56:01.987Z,26.30
2019-03-06T05:58:27.766Z,30.10
2019-03-06T06:00:53.557Z,26.10
2019-03-06T06:03:19.338Z,25.30
2019-03-06T06:05:45.131Z,28.93
2019-03-06T06:08:10.908Z,24.10
2019-03-06T06:10:36.712Z,25.40
2019-03-06T06:13:02.489Z,26.93
2019-03-06T06:15:28.303Z,28.57
2019-03-06T06:17:54.079Z,25.30
2019-03-06T06:20:19.900Z,30.17
2019-03-06T06:22:47.580Z,27.10
2019-03-06T06:25:13.574Z,26.63
2019-03-06T06:27:39.358Z,27.80
2019-03-06T06:30:10.399Z,29.93
2019-03-06T06:32:36.177Z,25.70
2019-03-06T06:35:03.885Z,26.80
2019-03-06T06:37:29.661Z,26.17
2019-03-06T06:39:55.549Z,26.47
2019-03-06T06:42:21.330Z,29.57
2019-03-06T06:44:47.119Z,26.80
2019-03-06T06:47:12.902Z,27.90
2019-03-06T06:49:38.685Z,25.67
2019-03-06T06:52:27.906Z,28.13
2019-03-06T06:55:30.740Z,28.07
2019-03-06T06:58:00.628Z,26.63
2019-03-06T07:00:52.626Z,30.37
2019-03-06T07:03:40.990Z,27.53
2019-03-06T07:06:14.644Z,28.43
2019-03-06T07:08:44.842Z,27.23
2019-03-06T07:11:24.410Z,27.70
2019-03-06T07:13:52.094Z,26.73
2019-03-06T07:16:31.744Z,25.67
2019-03-06T07:19:11.193Z,26.03
2019-03-06T07:21:47.718Z,29.77
2019-03-06T07:24:30.520Z,26.70
2019-03-06T07:27:01.219Z,25.20
2019-03-06T07:29:34.452Z,24.10
2019-03-06T07:32:04.976Z,24.57
2019-03-06T07:34:32.670Z,23.13
2019-03-06T07:37:09.184Z,20.63
2019-03-06T07:39:36.865Z,22.70
2019-03-06T07:42:04.559Z,25.97
2019-03-06T07:44:48.917Z,20.63
2019-03-06T07:47:22.575Z,20.43
2019-03-06T07:50:05.673Z,20.47
2019-03-06T07:52:36.370Z,20.03
2019-03-06T07:55:12.827Z,20.60
2019-03-06T07:58:11.224Z,19.57
2019-03-06T08:00:37.006Z,22.30
2019-03-06T08:03:04.895Z,22.10
2019-03-06T08:05:30.676Z,19.87
2019-03-06T08:07:56.478Z,19.63
2019-03-06T08:10:24.180Z,18.70
2019-03-06T08:12:51.860Z,19.43
2019-03-06T08:15:31.393Z,17.10
2019-03-06T08:17:59.097Z,17.67
2019-03-06T08:20:38.858Z,15.13
2019-03-06T08:23:12.380Z,15.87
2019-03-06T08:25:43.710Z,14.33
2019-03-06T08:28:10.397Z,17.33
2019-03-06T08:30:43.240Z,17.60
2019-03-06T08:33:17.728Z,15.00
2019-03-06T08:35:36.538Z,15.90
2019-03-06T08:38:02.336Z,14.70
2019-03-06T08:40:28.115Z,14.03
2019-03-06T08:42:53.905Z,13.23
2019-03-06T08:45:24.108Z,13.00
2019-03-06T08:48:08.861Z,14.90
2019-03-06T08:50:54.931Z,14.90
2019-03-06T08:53:25.421Z,15.63
2019-03-06T08:55:53.105Z,15.20
2019-03-06T08:58:37.169Z,18.00
2019-03-06T09:01:34.368Z,15.23
2019-03-06T09:04:02.664Z,15.33
2019-03-06T09:06:36.367Z,16.23
2019-03-06T09:09:17.903Z,14.97
2019-03-06T09:11:45.581Z,17.43
2019-03-06T09:14:29.659Z,16.70
2019-03-06T09:17:14.057Z,15.03
2019-03-06T09:19:44.556Z,16.70
2019-03-06T09:22:20.880Z,16.63
2019-03-06T09:24:57.160Z,19.80
2019-03-06T09:27:27.769Z,17.63
2019-03-06T09:30:01.517Z,17.00
2019-03-06T09:32:45.853Z,19.50
2019-03-06T09:35:16.322Z,14.30
2019-03-06T09:37:50.028Z,18.53
2019-03-06T09:40:20.507Z,16.37
2019-03-06T09:42:48.193Z,13.90
2019-03-06T09:45:21.633Z,15.60
2019-03-06T09:47:49.312Z,14.07
2019-03-06T09:50:33.771Z,17.73
2019-03-06T09:53:10.414Z,15.20
2019-03-06T09:55:44.197Z,14.87
2019-03-06T09:58:20.453Z,16.03
2019-03-06T10:00:50.081Z,13.37
2019-03-06T10:03:17.768Z,15.30
2019-03-06T10:05:48.593Z,13.87
2019-03-06T10:08:16.279Z,13.53
2019-03-06T10:10:56.994Z,13.17
2019-03-06T10:13:16.329Z,13.20
2019-03-06T10:15:52.825Z,13.90
2019-03-06T10:18:20.614Z,12.30
2019-03-06T10:20:46.416Z,14.20
2019-03-06T10:23:12.209Z,13.43
2019-03-06T10:25:42.635Z,13.93
2019-03-06T10:28:08.429Z,13.07
2019-03-06T10:30:34.307Z,13.90
2019-03-06T10:33:00.097Z,15.83
2019-03-06T10:35:25.896Z,14.40
2019-03-06T10:37:51.979Z,13.67
2019-03-06T10:40:18.165Z,14.00
2019-03-06T10:42:43.975Z,13.30
2019-03-06T10:45:10.857Z,13.20
2019-03-06T10:47:36.660Z,11.80
2019-03-06T10:50:06.270Z,11.77
2019-03-06T10:52:33.573Z,12.47
2019-03-06T10:54:59.359Z,13.47
2019-03-06T10:57:25.147Z,11.70
2019-03-06T10:59:50.947Z,13.53
2019-03-06T11:02:17.217Z,12.60
2019-03-06T11:04:44.913Z,12.07
2019-03-06T11:07:11.013Z,14.07
2019-03-06T11:09:36.797Z,12.27
2019-03-06T11:12:03.193Z,13.03
2019-03-06T11:14:29.181Z,11.93
2019-03-06T11:16:55.007Z,11.93
2019-03-06T11:19:21.205Z,13.03
2019-03-06T11:21:47.027Z,11.40
2019-03-06T11:24:12.913Z,12.47
2019-03-06T11:26:39.005Z,12.67
2019-03-06T11:29:05.998Z,12.73
2019-03-06T11:31:31.792Z,13.50
2019-03-06T11:33:57.583Z,13.03
2019-03-06T11:36:23.360Z,13.03
2019-03-06T11:38:49.202Z,13.33
2019-03-06T11:41:15.189Z,13.03
2019-03-06T11:43:40.979Z,12.73
2019-03-06T11:46:07.566Z,14.77
2019-03-06T11:48:33.467Z,15.17
2019-03-06T11:50:59.251Z,14.03
2019-03-06T11:53:26.410Z,15.23
2019-03-06T11:55:52.204Z,13.53
2019-03-06T11:58:18.002Z,12.70
2019-03-06T12:00:45.317Z,12.60
2019-03-06T12:03:11.968Z,12.33
2019-03-06T12:05:37.759Z,12.43
2019-03-06T12:08:06.391Z,12.00
2019-03-06T12:10:32.460Z,12.03
2019-03-06T12:12:58.367Z,12.20
2019-03-06T12:15:24.255Z,11.97
2019-03-06T12:17:50.342Z,11.93
2019-03-06T12:20:16.141Z,13.93
2019-03-06T12:22:41.934Z,11.37
2019-03-06T12:25:09.447Z,12.17
2019-03-06T12:27:35.429Z,11.27
2019-03-06T12:30:01.227Z,11.10
2019-03-06T12:32:27.354Z,11.87
2019-03-06T12:34:53.199Z,11.63
2019-03-06T12:37:18.993Z,11.33
2019-03-06T12:39:44.827Z,11.90
2019-03-06T12:42:14.249Z,11.00
2019-03-06T12:44:38.447Z,11.73
2019-03-06T12:47:04.324Z,11.07
2019-03-06T12:49:30.144Z,12.87
2019-03-06T12:51:55.932Z,12.87
2019-03-06T12:54:21.744Z,10.70
2019-03-06T12:56:47.503Z,11.20
2019-03-06T12:59:13.399Z,12.03
2019-03-06T13:01:39.341Z,11.03
2019-03-06T13:04:05.292Z,11.57
2019-03-06T13:06:31.075Z,12.47
2019-03-06T13:08:57.659Z,10.77
2019-03-06T13:11:23.456Z,10.70
2019-03-06T13:13:49.234Z,10.37
2019-03-06T13:16:15.958Z,10.10
2019-03-06T13:18:41.833Z,13.77
2019-03-06T13:21:08.244Z,10.13
2019-03-06T13:23:34.436Z,11.00
2019-03-06T13:26:00.238Z,10.67
2019-03-06T13:28:26.022Z,13.57
2019-03-06T13:30:51.817Z,11.77
2019-03-06T13:33:28.546Z,11.17
2019-03-06T13:35:54.359Z,12.37
2019-03-06T13:38:20.241Z,9.83
2019-03-06T13:40:46.037Z,9.43
2019-03-06T13:43:11.833Z,9.27
2019-03-06T13:45:37.630Z,11.20
2019-03-06T13:48:03.409Z,10.43
2019-03-06T13:50:29.210Z,8.83
2019-03-06T13:52:54.997Z,8.67
2019-03-06T13:55:20.824Z,8.97
2019-03-06T13:57:46.646Z,9.47
2019-03-06T14:00:18.396Z,8.93
2019-03-06T14:02:45.455Z,8.53
2019-03-06T14:05:12.248Z,8.10
2019-03-06T14:07:38.048Z,8.93
2019-03-06T14:10:06.145Z,7.80
2019-03-06T14:12:32.029Z,9.93
2019-03-06T14:14:57.895Z,8.37
2019-03-06T14:17:23.902Z,8.83
2019-03-06T14:19:49.693Z,8.17
2019-03-06T14:22:15.510Z,9.20
2019-03-06T14:24:41.389Z,10.83
2019-03-06T14:27:07.399Z,9.60
2019-03-06T14:29:33.195Z,7.90
2019-03-06T14:31:58.990Z,8.37
2019-03-06T14:34:24.778Z,11.70
2019-03-06T14:36:50.777Z,8.50
2019-03-06T14:39:20.379Z,7.97
2019-03-06T14:41:46.181Z,7.97
2019-03-06T14:44:11.962Z,10.03
2019-03-06T14:46:37.767Z,6.90
2019-03-06T14:49:03.560Z,8.20
2019-03-06T14:51:29.353Z,8.23
2019-03-06T14:53:55.132Z,7.33
2019-03-06T14:56:21.162Z,8.07
2019-03-06T14:58:47.053Z,8.47
2019-03-06T15:01:12.834Z,8.03
2019-03-06T15:03:38.634Z,9.90
2019-03-06T15:06:04.610Z,8.77
2019-03-06T15:08:30.413Z,7.80
2019-03-06T15:10:56.193Z,7.83
2019-03-06T15:13:22.000Z,8.53
2019-03-06T15:15:47.783Z,7.60
2019-03-06T15:18:13.603Z,8.97
2019-03-06T15:20:39.388Z,8.67
2019-03-06T15:23:05.287Z,8.50
2019-03-06T15:25:31.071Z,8.97
2019-03-06T15:27:56.868Z,7.63
2019-03-06T15:30:22.652Z,8.00
2019-03-06T15:32:48.548Z,7.60
2019-03-06T15:35:14.745Z,7.50
2019-03-06T15:37:40.545Z,8.20
2019-03-06T15:40:20.002Z,8.07
2019-03-06T15:42:46.109Z,9.20
2019-03-06T15:45:12.201Z,8.67
2019-03-06T15:47:38.989Z,7.10
2019-03-06T15:50:08.526Z,8.57
2019-03-06T15:52:34.412Z,10.90
2019-03-06T15:55:00.347Z,7.60
2019-03-06T15:57:26.134Z,7.70
2019-03-06T15:59:52.031Z,8.10
2019-03-06T16:02:17.912Z,8.27
2019-03-06T16:04:43.801Z,7.10
2019-03-06T16:07:09.780Z,7.27
2019-03-06T16:09:35.792Z,6.77
2019-03-06T16:12:01.569Z,7.20
2019-03-06T16:14:27.369Z,6.83
2019-03-06T16:16:53.152Z,6.57
2019-03-06T16:19:18.947Z,6.63
2019-03-06T16:21:44.740Z,7.00
2019-03-06T16:24:10.541Z,7.43
2019-03-06T16:26:36.332Z,7.10
2019-03-06T16:29:02.544Z,6.37
2019-03-06T16:31:28.326Z,6.10
2019-03-06T16:33:54.142Z,6.07
2019-03-06T16:36:19.918Z,7.33
2019-03-06T16:38:45.726Z,6.63
2019-03-06T16:41:11.515Z,8.60
2019-03-06T16:43:37.306Z,5.97
2019-03-06T16:46:03.188Z,7.30
2019-03-06T16:48:29.171Z,5.87
2019-03-06T16:50:54.969Z,6.40
2019-03-06T16:53:20.745Z,8.77
2019-03-06T16:55:46.554Z,7.60
2019-03-06T16:58:12.334Z,6.67
2019-03-06T17:00:38.225Z,5.93
2019-03-06T17:03:08.425Z,7.43
2019-03-06T17:05:34.621Z,6.93
2019-03-06T17:08:00.911Z,6.20
2019-03-06T17:10:28.127Z,6.50
2019-03-06T17:12:54.416Z,5.70
2019-03-06T17:15:21.514Z,6.17
2019-03-06T17:17:47.399Z,6.93
2019-03-06T17:20:17.010Z,6.17
2019-03-06T17:22:43.402Z,6.00
2019-03-06T17:25:09.396Z,6.10
2019-03-06T17:27:35.587Z,6.20
2019-03-06T17:30:01.492Z,6.87
2019-03-06T17:32:27.268Z,7.07
2019-03-06T17:34:53.082Z,7.17
2019-03-06T17:37:18.861Z,11.33
2019-03-06T17:39:44.653Z,6.60
2019-03-06T17:42:10.435Z,9.57
2019-03-06T17:44:36.243Z,6.50
2019-03-06T17:47:02.010Z,7.00
2019-03-06T17:49:27.798Z,8.23
2019-03-06T17:51:53.600Z,9.47
2019-03-06T17:54:19.377Z,7.40
2019-03-06T17:56:46.747Z,11.10
2019-03-06T17:59:12.659Z,6.57
2019-03-06T18:01:38.456Z,7.53
2019-03-06T18:04:06.149Z,9.33
2019-03-06T18:06:31.948Z,6.83
2019-03-06T18:08:57.729Z,8.30
2019-03-06T18:11:23.831Z,7.97
2019-03-06T18:13:49.616Z,7.50
2019-03-06T18:16:15.431Z,11.07
2019-03-06T18:18:41.220Z,8.67
2019-03-06T18:21:07.237Z,7.93
2019-03-06T18:23:34.412Z,8.63
2019-03-06T18:26:00.420Z,8.20
2019-03-06T18:28:26.203Z,8.07
2019-03-06T18:30:52.000Z,8.13
2019-03-06T18:33:17.789Z,9.23
2019-03-06T18:35:43.584Z,11.10
2019-03-06T18:38:09.385Z,12.23
2019-03-06T18:40:35.176Z,13.53
2019-03-06T18:43:01.178Z,11.30
2019-03-06T18:45:26.966Z,9.33
2019-03-06T18:47:52.772Z,8.97
2019-03-06T18:50:22.438Z,11.07
2019-03-06T18:52:48.329Z,9.30
2019-03-06T18:55:15.428Z,10.57
2019-03-06T18:57:41.316Z,9.93
2019-03-06T19:00:10.909Z,10.67
2019-03-06T19:02:36.711Z,11.43
2019-03-06T19:05:04.892Z,10.70
2019-03-06T19:07:30.687Z,8.57
2019-03-06T19:09:56.464Z,8.43
2019-03-06T19:12:22.256Z,11.77
2019-03-06T19:14:48.042Z,11.63
2019-03-06T19:17:13.838Z,8.67
2019-03-06T19:19:39.724Z,8.50
2019-03-06T19:22:05.627Z,11.50
2019-03-06T19:24:31.424Z,9.53
2019-03-06T19:26:57.209Z,10.67
2019-03-06T19:29:23.018Z,7.73
2019-03-06T19:31:48.896Z,13.93
2019-03-06T19:34:14.693Z,10.63
2019-03-06T19:36:40.469Z,10.07
2019-03-06T19:39:06.393Z,10.17
2019-03-06T19:41:32.384Z,11.60
2019-03-06T19:43:58.177Z,9.70
2019-03-06T19:46:24.006Z,10.00
2019-03-06T19:48:51.728Z,12.60
2019-03-06T19:51:17.512Z,11.17
2019-03-06T19:53:43.320Z,10.10
2019-03-06T19:56:09.099Z,11.03
2019-03-06T19:58:34.951Z,12.20
2019-03-06T20:01:00.723Z,10.87
2019-03-06T20:03:26.721Z,9.37
2019-03-06T20:05:52.497Z,11.50
2019-03-06T20:08:18.291Z,11.77
2019-03-06T20:10:44.073Z,9.90
2019-03-06T20:13:10.470Z,10.50
2019-03-06T20:15:37.264Z,10.73
2019-03-06T20:18:03.051Z,9.67
2019-03-06T20:20:28.853Z,12.13
2019-03-06T20:22:54.949Z,11.20
2019-03-06T20:25:22.678Z,12.10
2019-03-06T20:27:48.630Z,11.13
2019-03-06T20:30:19.391Z,13.23
2019-03-06T20:32:47.226Z,12.47
2019-03-06T20:35:15.978Z,9.83
2019-03-06T20:37:41.766Z,14.40
2019-03-06T20:40:09.271Z,12.23
2019-03-06T20:42:35.054Z,15.93
2019-03-06T20:45:00.849Z,10.93
2019-03-06T20:47:26.624Z,9.60
2019-03-06T20:49:52.421Z,12.00
2019-03-06T20:52:18.207Z,12.13
2019-03-06T20:54:43.997Z,12.33
2019-03-06T20:57:12.054Z,11.50
2019-03-06T20:59:38.451Z,11.83
2019-03-06T21:02:04.710Z,11.37
2019-03-06T21:04:30.720Z,12.60
2019-03-06T21:06:56.814Z,12.67
2019-03-06T21:09:22.976Z,14.57
2019-03-06T21:11:48.758Z,11.07
2019-03-06T21:14:14.545Z,14.27
2019-03-06T21:16:40.611Z,11.57
2019-03-06T21:19:06.678Z,11.87
2019-03-06T21:21:32.495Z,10.60
2019-03-06T21:23:58.606Z,9.77
2019-03-06T21:26:24.608Z,9.40
2019-03-06T21:28:50.396Z,10.40
2019-03-06T21:31:21.118Z,13.13
2019-03-06T21:33:47.014Z,9.57
2019-03-06T21:36:12.805Z,11.47
2019-03-06T21:38:38.585Z,14.13
2019-03-06T21:41:04.377Z,13.00
2019-03-06T21:43:31.899Z,11.07
2019-03-06T21:45:57.826Z,11.93
2019-03-06T21:48:25.685Z,10.17
2019-03-06T21:50:51.949Z,14.87
2019-03-06T21:53:20.223Z,11.33
2019-03-06T21:55:48.194Z,12.17
2019-03-06T21:58:14.048Z,12.43
2019-03-06T22:00:39.829Z,14.57
2019-03-06T22:03:05.613Z,11.13
2019-03-06T22:05:31.404Z,17.17
2019-03-06T22:07:57.350Z,13.03
2019-03-06T22:10:25.504Z,16.70
2019-03-06T22:12:54.322Z,15.57
2019-03-06T22:15:21.530Z,17.27
2019-03-06T22:17:47.327Z,15.40
2019-03-06T22:20:13.890Z,14.43
2019-03-06T22:22:39.791Z,13.63
2019-03-06T22:25:10.897Z,15.83
2019-03-06T22:27:38.035Z,14.60
2019-03-06T22:30:07.474Z,12.40
2019-03-06T22:32:33.373Z,15.37
2019-03-06T22:34:59.612Z,10.97
2019-03-06T22:37:25.547Z,13.03
2019-03-06T22:39:51.821Z,13.17
2019-03-06T22:42:17.630Z,12.33
2019-03-06T22:44:43.408Z,12.87
2019-03-06T22:47:09.223Z,11.10
2019-03-06T22:49:35.006Z,12.47
2019-03-06T22:52:00.836Z,12.37
2019-03-06T22:54:26.617Z,9.77
2019-03-06T22:56:52.396Z,9.40
2019-03-06T22:59:18.191Z,12.80
2019-03-06T23:01:44.167Z,10.10
2019-03-06T23:04:09.961Z,11.73
2019-03-06T23:06:35.756Z,13.47
2019-03-06T23:09:01.545Z,10.43
2019-03-06T23:11:27.532Z,12.50
2019-03-06T23:13:53.320Z,10.53
2019-03-06T23:16:19.108Z,10.27
2019-03-06T23:18:44.903Z,10.00
2019-03-06T23:21:10.695Z,10.57
2019-03-06T23:23:36.710Z,12.83
2019-03-06T23:26:02.498Z,9.97
2019-03-06T23:28:28.287Z,13.23
2019-03-06T23:30:54.072Z,9.73
2019-03-06T23:33:19.867Z,10.40
2019-03-06T23:35:45.653Z,8.50
2019-03-06T23:38:11.464Z,9.37
2019-03-06T23:40:37.245Z,10.10
2019-03-06T23:43:05.821Z,8.60
2019-03-06T23:45:31.821Z,9.93
2019-03-06T23:47:57.615Z,11.70
2019-03-06T23:50:23.423Z,10.23
2019-03-06T23:53:02.944Z,10.40
2019-03-06T23:55:30.656Z,10.70
2019-03-06T23:57:56.777Z,10.00
